Time;durP1;ratioP1;P1;durP2;ratioP2;P2;SDS_P1;SDS_P2;PMS_P1;PMS_P2;Temp;Humidity;BMP_temperature;BMP_pressure;BME280_temperature;BME280_humidity;BME280_pressure;Samples;Min_cycle;Max_cycle;Signal;HPM_P1;HPM_P2
2022/05/12 00:00:49;;;;;;;2.28;2.17;;;14.80;79.50;;;;;;5011117;28;20555;-74
2022/05/12 00:03:17;;;;;;;2.72;2.30;;;14.70;79.90;;;;;;5011670;28;20201;-73
2022/05/12 00:05:43;;;;;;;2.88;2.70;;;14.70;79.60;;;;;;5045317;28;20185;-73
2022/05/12 00:08:10;;;;;;;3.13;2.63;;;14.60;79.30;;;;;;5015457;28;20214;-75
2022/05/12 00:10:36;;;;;;;2.60;2.45;;;14.50;78.80;;;;;;5016532;28;20185;-73
2022/05/12 00:13:03;;;;;;;5.47;2.47;;;14.50;79.50;;;;;;5015433;28;20252;-73
2022/05/12 00:15:31;;;;;;;2.45;2.28;;;14.40;79.00;;;;;;5016651;28;20261;-73
2022/05/12 00:18:01;;;;;;;5.32;2.22;;;14.30;78.80;;;;;;5021635;28;20670;-74
2022/05/12 00:20:28;;;;;;;2.65;2.40;;;14.30;79.20;;;;;;5023558;28;20173;-74
2022/05/12 00:23:17;;;;;;;2.03;1.92;;;14.30;79.20;;;;;;5014537;28;20593;-74
2022/05/12 00:25:47;;;;;;;2.65;1.90;;;14.20;79.50;;;;;;5014822;28;20567;-73
2022/05/12 00:28:15;;;;;;;5.18;2.28;;;14.20;79.70;;;;;;5016611;28;20596;-74
2022/05/12 00:30:41;;;;;;;2.63;2.10;;;14.20;79.90;;;;;;5012547;28;20177;-74
2022/05/12 00:33:07;;;;;;;2.42;1.92;;;14.20;79.50;;;;;;5017144;28;20212;-74
2022/05/12 00:35:34;;;;;;;1.85;1.80;;;14.20;79.60;;;;;;5016574;28;20180;-73
2022/05/12 00:38:00;;;;;;;1.77;1.67;;;14.10;79.90;;;;;;5019632;28;20196;-73
2022/05/12 00:40:26;;;;;;;2.20;2.03;;;14.10;80.20;;;;;;5012159;28;20267;-73
2022/05/12 00:43:00;;;;;;;2.42;2.30;;;14.10;79.90;;;;;;5016581;28;20192;-74
2022/05/12 00:45:28;;;;;;;1.70;1.60;;;14.00;79.60;;;;;;5014374;28;20194;-73
2022/05/12 00:47:54;;;;;;;3.53;1.85;;;14.00;80.40;;;;;;5018523;28;20185;-74
2022/05/12 00:50:26;;;;;;;1.38;1.38;;;13.90;79.20;;;;;;5013465;28;20265;-74
2022/05/12 00:52:52;;;;;;;1.95;1.77;;;13.90;80.00;;;;;;5010454;28;20205;-73
2022/05/12 00:55:27;;;;;;;2.00;1.73;;;13.90;80.00;;;;;;5015460;28;20515;-73
2022/05/12 00:57:55;;;;;;;1.70;1.60;;;13.90;79.30;;;;;;5011946;28;20176;-74
2022/05/12 01:00:23;;;;;;;1.95;1.90;;;13.80;79.80;;;;;;5016533;28;20275;-73
2022/05/12 01:02:53;;;;;;;1.85;1.73;;;13.80;80.00;;;;;;5034790;28;20725;-74
2022/05/12 01:05:21;;;;;;;1.70;1.60;;;13.80;79.60;;;;;;5014163;28;20173;-74
2022/05/12 01:07:48;;;;;;;2.00;1.90;;;13.70;79.70;;;;;;5014820;28;20251;-74
2022/05/12 01:10:14;;;;;;;2.78;1.75;;;13.70;80.00;;;;;;5010630;28;20181;-74
2022/05/12 01:12:43;;;;;;;4.10;2.08;;;13.70;79.90;;;;;;5011115;28;20239;-73
2022/05/12 01:15:09;;;;;;;2.38;2.17;;;13.70;80.20;;;;;;5007925;28;20184;-74
2022/05/12 01:17:35;;;;;;;1.77;1.77;;;13.60;80.20;;;;;;5015110;28;20208;-74
2022/05/12 01:20:01;;;;;;;2.13;2.03;;;13.60;80.40;;;;;;5012815;28;20269;-73
2022/05/12 01:22:42;;;;;;;2.53;2.42;;;13.60;80.60;;;;;;5009723;28;20188;-74
2022/05/12 01:25:16;;;;;;;1.98;1.88;;;13.60;81.20;;;;;;5011509;28;20188;-74
2022/05/12 01:27:42;;;;;;;3.22;2.33;;;13.50;81.10;;;;;;5012140;28;20188;-74
2022/05/12 01:30:10;;;;;;;1.92;1.83;;;13.50;81.20;;;;;;5011381;28;20311;-73
2022/05/12 01:32:36;;;;;;;4.15;2.60;;;13.50;81.50;;;;;;5016837;28;20227;-73
2022/05/12 01:35:01;;;;;;;3.42;3.10;;;13.50;81.70;;;;;;5017141;28;20180;-73
2022/05/12 01:37:27;;;;;;;3.40;3.20;;;13.50;81.50;;;;;;5016471;28;20575;-74
2022/05/12 01:39:53;;;;;;;3.08;2.83;;;13.40;81.70;;;;;;5013435;28;20294;-73
2022/05/12 01:42:19;;;;;;;2.80;2.60;;;13.40;82.20;;;;;;5013203;28;20199;-73
2022/05/12 01:44:45;;;;;;;4.57;1.45;;;13.40;81.90;;;;;;5013092;28;20176;-73
2022/05/12 01:47:13;;;;;;;2.00;1.60;;;13.40;82.10;;;;;;5020025;28;20180;-74
2022/05/12 01:49:39;;;;;;;1.77;1.77;;;13.40;82.30;;;;;;5013339;28;20729;-74
2022/05/12 01:52:06;;;;;;;2.72;1.98;;;13.30;82.10;;;;;;5011406;28;20217;-73
2022/05/12 01:54:32;;;;;;;2.00;1.90;;;13.30;81.70;;;;;;5014152;28;20181;-73
2022/05/12 01:56:58;;;;;;;1.30;1.30;;;13.30;82.10;;;;;;5013780;28;20696;-74
2022/05/12 01:59:24;;;;;;;4.90;1.98;;;13.30;82.10;;;;;;5014370;28;20207;-74
2022/05/12 02:01:50;;;;;;;2.38;2.20;;;13.20;82.40;;;;;;5012652;28;20315;-75
2022/05/12 02:04:17;;;;;;;2.10;1.88;;;13.20;82.30;;;;;;5012693;28;20274;-74
2022/05/12 02:06:45;;;;;;;2.35;1.85;;;13.20;82.50;;;;;;5016083;28;20181;-74
2022/05/12 02:09:11;;;;;;;1.70;1.65;;;13.10;82.50;;;;;;5012560;28;20177;-75
2022/05/12 02:11:38;;;;;;;2.25;2.15;;;13.10;82.60;;;;;;5014588;28;20229;-75
2022/05/12 02:14:05;;;;;;;2.30;2.20;;;13.10;82.40;;;;;;5015458;28;20216;-74
2022/05/12 02:16:33;;;;;;;3.17;1.88;;;13.00;82.60;;;;;;5015901;28;20265;-75
2022/05/12 02:19:00;;;;;;;3.22;1.85;;;13.00;82.60;;;;;;5046525;28;20201;-75
2022/05/12 02:21:26;;;;;;;2.22;2.13;;;13.00;83.10;;;;;;5016112;28;20204;-74
2022/05/12 02:23:51;;;;;;;2.10;2.00;;;13.00;82.80;;;;;;5012395;28;20310;-74
2022/05/12 02:26:17;;;;;;;2.65;1.90;;;13.00;82.80;;;;;;5012649;28;20231;-74
2022/05/12 02:28:43;;;;;;;2.17;1.98;;;12.90;83.00;;;;;;5015275;28;20184;-74
2022/05/12 02:31:09;;;;;;;2.30;1.77;;;;;;;;;;5017059;28;20181;-74
2022/05/12 02:33:35;;;;;;;2.30;2.03;;;12.90;82.90;;;;;;5014730;28;20194;-74
2022/05/12 02:36:02;;;;;;;3.53;2.47;;;12.90;83.00;;;;;;5010794;28;20513;-74
2022/05/12 02:38:28;;;;;;;3.83;2.40;;;12.80;83.20;;;;;;5014643;28;20608;-73
2022/05/12 02:40:54;;;;;;;2.72;2.20;;;12.80;83.40;;;;;;5015749;28;20574;-73
2022/05/12 02:43:23;;;;;;;2.60;2.40;;;12.80;83.70;;;;;;5009143;28;20246;-74
2022/05/12 02:45:59;;;;;;;3.08;2.20;;;12.80;84.00;;;;;;5014073;28;20327;-74
2022/05/12 02:48:28;;;;;;;2.90;2.20;;;12.80;83.70;;;;;;5014809;28;20181;-73
2022/05/12 02:50:55;;;;;;;2.67;2.47;;;12.80;84.00;;;;;;5016032;28;20239;-74
2022/05/12 02:53:21;;;;;;;2.08;2.03;;;12.80;84.00;;;;;;5013403;28;20725;-74
2022/05/12 02:55:47;;;;;;;2.58;2.45;;;12.70;83.80;;;;;;5016861;28;20195;-74
2022/05/12 02:58:13;;;;;;;2.45;2.25;;;12.70;84.00;;;;;;5011435;28;20668;-74
2022/05/12 03:00:40;;;;;;;2.70;2.50;;;12.60;84.00;;;;;;5049956;28;20185;-74
2022/05/12 03:03:07;;;;;;;3.22;2.42;;;12.70;84.00;;;;;;5044667;28;20193;-75
2022/05/12 03:05:33;;;;;;;2.53;2.33;;;12.60;84.00;;;;;;5011575;28;20176;-74
2022/05/12 03:07:59;;;;;;;2.42;2.33;;;12.60;84.20;;;;;;5008692;28;20184;-74
2022/05/12 03:10:25;;;;;;;2.17;1.98;;;12.50;84.30;;;;;;5013757;28;20181;-74
2022/05/12 03:12:51;;;;;;;5.35;2.95;;;12.50;84.30;;;;;;5010309;28;20213;-73
2022/05/12 03:15:17;;;;;;;3.08;2.72;;;12.50;84.10;;;;;;5014827;28;20275;-74
2022/05/12 03:17:44;;;;;;;2.50;2.40;;;12.40;84.10;;;;;;5014131;28;20258;-73
2022/05/12 03:20:15;;;;;;;4.57;1.90;;;12.40;84.30;;;;;;5016505;28;20206;-74
2022/05/12 03:22:41;;;;;;;3.30;2.42;;;12.40;84.20;;;;;;5010829;28;20193;-74
2022/05/12 03:25:10;;;;;;;2.55;2.45;;;12.40;84.20;;;;;;5014295;28;20574;-74
2022/05/12 03:27:36;;;;;;;2.38;2.25;;;12.30;84.20;;;;;;5008829;28;20184;-74
2022/05/12 03:30:04;;;;;;;2.75;2.55;;;12.30;84.50;;;;;;5009513;28;20246;-74
2022/05/12 03:32:30;;;;;;;2.83;2.63;;;12.30;84.10;;;;;;5012469;28;20617;-74
2022/05/12 03:34:56;;;;;;;2.13;2.03;;;12.30;84.30;;;;;;5015763;28;20180;-73
2022/05/12 03:37:22;;;;;;;2.38;2.25;;;12.20;84.50;;;;;;5009174;28;20216;-74
2022/05/12 03:39:47;;;;;;;5.95;2.03;;;12.20;84.50;;;;;;5014402;28;20239;-74
2022/05/12 03:42:15;;;;;;;1.77;1.77;;;12.20;84.70;;;;;;5017235;28;20694;-74
2022/05/12 03:44:49;;;;;;;2.78;1.92;;;12.30;84.80;;;;;;5031736;28;20180;-73
2022/05/12 03:47:19;;;;;;;2.88;2.00;;;12.20;85.00;;;;;;5010211;28;20259;-74
2022/05/12 03:49:52;;;;;;;2.20;2.10;;;12.20;85.60;;;;;;5043876;28;20184;-75
2022/05/12 03:52:18;;;;;;;2.20;1.90;;;12.30;85.10;;;;;;5009188;28;20216;-74
2022/05/12 03:54:44;;;;;;;2.55;2.35;;;12.30;85.00;;;;;;5013436;28;20181;-74
2022/05/12 03:57:11;;;;;;;2.90;1.95;;;12.20;84.80;;;;;;5012701;28;20189;-73
2022/05/12 03:59:40;;;;;;;2.33;2.22;;;12.20;84.80;;;;;;5009432;28;20656;-73
2022/05/12 04:02:13;;;;;;;2.60;2.05;;;12.20;85.00;;;;;;5011140;28;20188;-73
2022/05/12 04:04:42;;;;;;;2.25;2.15;;;12.30;85.20;;;;;;5039801;28;20283;-73
2022/05/12 04:07:13;;;;;;;2.92;2.03;;;12.30;85.20;;;;;;5015127;28;20188;-74
2022/05/12 04:09:38;;;;;;;1.77;1.67;;;12.30;85.40;;;;;;5012626;28;20308;-74
2022/05/12 04:12:11;;;;;;;4.15;1.90;;;12.30;85.20;;;;;;5010226;28;20253;-73
2022/05/12 04:14:42;;;;;;;2.28;2.17;;;12.30;85.10;;;;;;5044520;28;20678;-73
2022/05/12 04:17:14;;;;;;;2.03;1.95;;;12.30;85.10;;;;;;5015872;28;20237;-73
2022/05/12 04:19:40;;;;;;;2.42;2.25;;;12.30;85.30;;;;;;5014554;28;20188;-74
2022/05/12 04:22:06;;;;;;;4.63;2.30;;;12.30;85.20;;;;;;5006578;28;20193;-75
2022/05/12 04:24:32;;;;;;;2.50;2.30;;;12.30;84.70;;;;;;5014854;28;20203;-73
2022/05/12 04:26:58;;;;;;;2.38;2.28;;;12.30;84.50;;;;;;5041325;28;20184;-74
2022/05/12 04:29:24;;;;;;;2.47;2.20;;;12.40;84.70;;;;;;5009461;28;20177;-74
2022/05/12 04:31:50;;;;;;;2.33;2.22;;;12.40;84.90;;;;;;5012829;28;20297;-73
2022/05/12 04:37:00;;;;;;;2.38;2.13;;;12.50;84.90;;;;;;5014372;28;20936;-74
2022/05/12 04:39:26;;;;;;;2.50;2.30;;;;;;;;;;5016192;28;20180;-74
2022/05/12 04:41:52;;;;;;;1.88;1.77;;;12.50;84.90;;;;;;5017681;28;20248;-74
2022/05/12 04:44:19;;;;;;;2.53;2.25;;;;;;;;;;5014822;28;20651;-74
2022/05/12 04:46:45;;;;;;;4.97;2.60;;;12.70;84.90;;;;;;5014712;28;20210;-74
2022/05/12 04:49:13;;;;;;;1.95;1.95;;;12.70;85.30;;;;;;5010886;28;20188;-73
2022/05/12 04:51:39;;;;;;;2.00;1.90;;;12.70;84.90;;;;;;5043644;28;20783;-74
2022/05/12 04:54:14;;;;;;;3.15;2.85;;;12.80;85.40;;;;;;5015504;28;20191;-75
2022/05/12 04:56:40;;;;;;;2.50;2.30;;;12.80;85.00;;;;;;5039857;28;20184;-76
2022/05/12 04:59:08;;;;;;;2.30;2.13;;;12.90;85.00;;;;;;5009451;28;20271;-76
2022/05/12 05:01:35;;;;;;;2.40;2.30;;;13.00;84.90;;;;;;5012455;28;20267;-75
2022/05/12 05:04:03;;;;;;;2.40;2.30;;;13.00;84.80;;;;;;5008256;28;20185;-76
2022/05/12 05:06:32;;;;;;;2.45;2.25;;;13.00;84.70;;;;;;5042695;28;20183;-75
2022/05/12 05:08:59;;;;;;;5.13;2.55;;;13.10;85.20;;;;;;5011633;28;20222;-75
2022/05/12 05:11:25;;;;;;;2.58;2.47;;;13.20;84.80;;;;;;5010660;28;20188;-74
2022/05/12 05:13:51;;;;;;;3.67;2.75;;;;;;;;;;5008645;28;20185;-75
2022/05/12 05:16:17;;;;;;;3.78;3.15;;;13.30;84.90;;;;;;5011130;28;20183;-74
2022/05/12 05:18:43;;;;;;;2.85;2.65;;;13.40;84.80;;;;;;5005215;28;20199;-74
2022/05/12 05:21:10;;;;;;;2.90;2.47;;;13.40;84.50;;;;;;5014981;28;20181;-75
2022/05/12 05:23:37;;;;;;;3.13;2.78;;;13.50;84.30;;;;;;5008510;28;20200;-74
2022/05/12 05:26:03;;;;;;;3.38;2.70;;;13.50;84.00;;;;;;5017671;28;20222;-74
2022/05/12 05:28:29;;;;;;;2.63;2.53;;;13.60;84.10;;;;;;5013303;28;20236;-74
2022/05/12 05:30:55;;;;;;;3.45;3.25;;;13.60;84.00;;;;;;5008031;28;20175;-74
2022/05/12 05:33:21;;;;;;;3.75;3.40;;;13.70;85.00;;;;;;5013114;28;20283;-75
2022/05/12 05:35:47;;;;;;;3.22;2.65;;;13.70;84.50;;;;;;5013948;28;20177;-74
2022/05/12 05:38:13;;;;;;;5.88;2.90;;;13.80;84.80;;;;;;5007187;28;20177;-76
2022/05/12 05:40:39;;;;;;;4.78;2.92;;;13.80;84.70;;;;;;5011592;28;20199;-75
2022/05/12 05:43:05;;;;;;;3.53;3.33;;;;;;;;;;5007795;28;20216;-75
2022/05/12 05:45:31;;;;;;;2.90;2.72;;;13.90;84.10;;;;;;5009451;28;20570;-76
2022/05/12 05:48:00;;;;;;;2.67;2.58;;;14.00;84.00;;;;;;5010377;28;20213;-76
2022/05/12 05:53:25;;;;;;;2.88;2.65;;;14.20;83.70;;;;;;5003913;28;20243;-78
2022/05/12 05:55:56;;;;;;;3.17;2.92;;;14.30;83.90;;;;;;5005337;28;20177;-77
2022/05/12 05:58:23;;;;;;;3.17;2.97;;;14.30;83.60;;;;;;5035124;28;20193;-77
2022/05/12 06:00:49;;;;;;;3.90;3.58;;;14.30;83.00;;;;;;5010592;28;20222;-76
2022/05/12 06:03:15;;;;;;;3.20;3.00;;;14.40;83.20;;;;;;5008545;28;20695;-76
2022/05/12 06:05:41;;;;;;;4.32;4.03;;;14.50;82.90;;;;;;5005450;28;20192;-76
2022/05/12 06:08:14;;;;;;;6.28;4.43;;;14.60;82.70;;;;;;5009220;28;20180;-76
2022/05/12 06:10:40;;;;;;;4.63;3.85;;;14.70;82.90;;;;;;5038382;28;20185;-76
2022/05/12 06:13:08;;;;;;;3.47;3.28;;;14.70;82.30;;;;;;5012592;28;20201;-77
2022/05/12 06:15:34;;;;;;;5.07;4.57;;;14.70;82.30;;;;;;5042284;28;20291;-77
2022/05/12 06:18:05;;;;;;;4.78;3.72;;;14.90;82.00;;;;;;5017620;28;20192;-77
2022/05/12 06:20:30;;;;;;;4.38;3.97;;;14.90;81.80;;;;;;5007177;28;20188;-77
2022/05/12 06:22:58;;;;;;;5.50;3.90;;;15.00;81.80;;;;;;5013569;28;20185;-77
2022/05/12 06:25:24;;;;;;;5.55;5.10;;;15.10;81.40;;;;;;5009191;28;20283;-77
2022/05/12 06:27:51;;;;;;;4.60;4.28;;;15.20;81.60;;;;;;5013251;28;20189;-77
2022/05/12 06:30:18;;;;;;;5.35;4.90;;;15.30;81.40;;;;;;5007322;28;20176;-76
2022/05/12 06:32:45;;;;;;;6.03;3.85;;;15.30;81.40;;;;;;5013728;28;20579;-76
2022/05/12 06:35:13;;;;;;;4.93;4.25;;;15.40;81.30;;;;;;5044352;28;21800;-75
2022/05/12 06:37:39;;;;;;;4.50;4.20;;;15.50;81.10;;;;;;5013930;28;20176;-75
2022/05/12 06:40:06;;;;;;;5.65;4.53;;;15.60;81.20;;;;;;5006815;28;20177;-76
2022/05/12 06:42:31;;;;;;;4.07;3.75;;;15.70;81.00;;;;;;5014605;28;20221;-77
2022/05/12 06:44:58;;;;;;;4.35;4.03;;;15.80;81.10;;;;;;5013227;28;20814;-77
2022/05/12 06:47:25;;;;;;;4.38;3.17;;;15.90;81.10;;;;;;5010495;28;21470;-77
2022/05/12 06:49:52;;;;;;;8.18;4.60;;;16.00;80.80;;;;;;5017426;28;20210;-76
2022/05/12 06:52:19;;;;;;;5.05;4.55;;;16.10;80.00;;;;;;5010241;28;20243;-76
2022/05/12 06:54:45;;;;;;;4.43;4.07;;;16.20;79.60;;;;;;5009606;28;20173;-77
2022/05/12 06:57:18;;;;;;;4.05;3.85;;;16.30;79.50;;;;;;5010198;28;20187;-77
2022/05/12 06:59:43;;;;;;;4.68;4.28;;;16.40;79.30;;;;;;5012927;28;20184;-76
2022/05/12 07:02:09;;;;;;;4.38;4.07;;;16.50;78.60;;;;;;5011552;28;20184;-76
2022/05/12 07:04:35;;;;;;;7.22;4.53;;;;;;;;;;5012709;28;20211;-76
2022/05/12 07:07:01;;;;;;;4.93;4.53;;;16.60;78.30;;;;;;5014224;28;20192;-77
2022/05/12 07:09:27;;;;;;;6.03;4.97;;;16.70;78.40;;;;;;5010001;28;20180;-77
2022/05/12 07:11:53;;;;;;;3.92;3.63;;;16.80;78.50;;;;;;5008943;28;20313;-77
2022/05/12 07:14:21;;;;;;;4.47;4.18;;;16.80;78.40;;;;;;5010779;28;20249;-76
2022/05/12 07:16:47;;;;;;;4.70;4.25;;;16.90;78.30;;;;;;5006707;28;20636;-76
2022/05/12 07:19:15;;;;;;;4.75;4.28;;;17.00;78.10;;;;;;5016678;28;20807;-76
2022/05/12 07:27:13;;;;;;;6.47;4.75;;;17.30;77.30;;;;;;5009970;28;20211;-77
2022/05/12 07:29:39;;;;;;;6.15;3.90;;;17.40;77.60;;;;;;5015331;28;20180;-76
2022/05/12 07:32:05;;;;;;;7.90;5.18;;;17.50;77.40;;;;;;5012996;28;20201;-76
2022/05/12 07:34:32;;;;;;;5.07;4.40;;;17.50;76.70;;;;;;5011472;28;20343;-76
2022/05/12 07:36:57;;;;;;;5.65;5.25;;;17.60;76.80;;;;;;5014801;28;20574;-76
2022/05/12 07:39:28;;;;;;;6.07;5.57;;;17.80;75.20;;;;;;5007507;28;20181;-76
2022/05/12 07:41:56;;;;;;;7.70;5.18;;;17.80;74.80;;;;;;5041771;28;20215;-76
2022/05/12 07:44:29;;;;;;;6.00;4.55;;;18.00;74.90;;;;;;5017808;28;20176;-77
2022/05/12 07:46:55;;;;;;;10.90;4.82;;;18.00;74.90;;;;;;5013082;28;20580;-77
2022/05/12 07:49:21;;;;;;;5.65;4.13;;;;;;;;;;5017155;28;20189;-77
2022/05/12 07:51:46;;;;;;;4.65;4.35;;;18.20;75.30;;;;;;5013760;28;20236;-77
2022/05/12 07:54:12;;;;;;;3.88;3.58;;;18.30;75.90;;;;;;5010746;28;20261;-76
2022/05/12 07:56:38;;;;;;;3.55;3.25;;;;;;;;;;5003169;28;20189;-77
2022/05/12 07:59:05;;;;;;;5.40;5.00;;;18.50;75.70;;;;;;5012169;28;20706;-76
2022/05/12 08:01:31;;;;;;;4.97;4.68;;;18.60;74.60;;;;;;5013409;28;20208;-76
2022/05/12 08:03:57;;;;;;;8.63;4.22;;;;;;;;;;5010236;28;20216;-76
2022/05/12 08:06:23;;;;;;;4.68;3.95;;;18.80;74.30;;;;;;5012096;28;20181;-76
2022/05/12 08:08:50;;;;;;;5.13;4.47;;;19.00;73.70;;;;;;5013980;28;20188;-77
2022/05/12 08:11:16;;;;;;;6.85;4.57;;;19.20;74.40;;;;;;5013412;28;20271;-77
2022/05/12 08:13:47;;;;;;;4.40;3.88;;;19.20;73.70;;;;;;5005642;28;20250;-77
2022/05/12 08:16:16;;;;;;;5.80;3.88;;;19.30;72.80;;;;;;5005668;28;20609;-77
2022/05/12 08:18:45;;;;;;;5.63;4.43;;;19.40;73.00;;;;;;5040400;28;20232;-75
2022/05/12 08:21:12;;;;;;;4.90;4.60;;;19.50;73.60;;;;;;5038961;28;20268;-77
2022/05/12 08:23:38;;;;;;;5.20;4.82;;;19.60;72.90;;;;;;5003959;28;20185;-74
2022/05/12 08:26:04;;;;;;;4.57;4.13;;;19.70;72.40;;;;;;5011907;28;20181;-74
2022/05/12 08:28:30;;;;;;;4.10;3.85;;;19.90;71.80;;;;;;5012722;28;20179;-75
2022/05/12 08:30:56;;;;;;;4.45;3.55;;;20.00;71.80;;;;;;5012257;28;20917;-75
2022/05/12 08:33:22;;;;;;;3.95;3.72;;;20.10;72.00;;;;;;5010888;28;20216;-76
2022/05/12 08:35:48;;;;;;;8.43;4.00;;;20.30;72.00;;;;;;5011518;28;20189;-78
2022/05/12 08:38:16;;;;;;;4.28;3.88;;;20.40;71.50;;;;;;5010642;28;20180;-75
2022/05/12 08:40:59;;;;;;;8.55;3.83;;;20.70;71.80;;;;;;5009385;28;20188;-75
2022/05/12 08:43:33;;;;;;;3.70;3.40;;;20.70;70.30;;;;;;5008424;28;20235;-76
2022/05/12 08:46:04;;;;;;;2.92;2.72;;;20.90;69.00;;;;;;5010101;28;20622;-75
2022/05/12 08:48:30;;;;;;;3.90;3.72;;;21.00;68.30;;;;;;5011245;28;20192;-77
2022/05/12 08:50:56;;;;;;;3.60;3.30;;;21.10;68.60;;;;;;5012831;28;20275;-76
2022/05/12 08:53:26;;;;;;;3.85;3.58;;;21.20;69.50;;;;;;5013263;28;20204;-76
2022/05/12 08:55:57;;;;;;;5.60;3.08;;;21.40;68.50;;;;;;5012811;28;20194;-76
2022/05/12 08:58:35;;;;;;;2.72;2.63;;;21.50;67.90;;;;;;5012183;28;20191;-76
2022/05/12 09:01:14;;;;;;;2.90;2.65;;;21.60;66.40;;;;;;5042964;28;20272;-76
2022/05/12 09:04:10;;;;;;;2.40;2.30;;;21.70;64.50;;;;;;5012144;28;20184;-76
2022/05/12 09:07:00;;;;;;;2.10;2.00;;;21.90;66.20;;;;;;5005014;28;20185;-77
2022/05/12 09:09:49;;;;;;;2.25;2.15;;;22.00;66.30;;;;;;5011306;28;20195;-76
2022/05/12 09:12:44;;;;;;;2.60;2.35;;;22.20;64.90;;;;;;4940382;29;21072;-77
2022/05/12 09:15:16;;;;;;;2.22;2.13;;;22.30;64.20;;;;;;4925291;29;20233;-76
2022/05/12 09:17:42;;;;;;;2.55;2.40;;;;;;;;;;4938545;29;20214;-77
2022/05/12 09:20:10;;;;;;;2.53;2.40;;;22.60;63.10;;;;;;4937971;29;20298;-76
2022/05/12 09:22:37;;;;;;;4.80;2.60;;;22.70;63.20;;;;;;4941616;28;20189;-76
2022/05/12 09:25:05;;;;;;;2.15;2.15;;;22.90;63.80;;;;;;4941654;28;20274;-76
2022/05/12 09:27:33;;;;;;;2.63;2.53;;;22.90;63.80;;;;;;4942187;29;20206;-77
2022/05/12 09:30:00;;;;;;;2.90;2.33;;;23.00;60.90;;;;;;4941846;28;20276;-76
2022/05/12 09:32:35;;;;;;;2.00;1.90;;;23.10;60.90;;;;;;4939375;29;20317;-76
2022/05/12 09:35:20;;;;;;;2.42;2.30;;;23.10;61.00;;;;;;4938947;29;21025;-76
2022/05/12 09:37:47;;;;;;;2.08;2.08;;;23.30;60.70;;;;;;4939871;28;20198;-76
2022/05/12 09:40:39;;;;;;;4.30;2.45;;;23.40;61.10;;;;;;4940582;29;20191;-76
2022/05/12 09:43:29;;;;;;;2.05;1.95;;;23.60;61.00;;;;;;4941342;29;20254;-76
2022/05/12 09:46:03;;;;;;;2.40;2.40;;;23.80;59.50;;;;;;4942038;28;20199;-74
2022/05/12 09:48:31;;;;;;;2.17;2.08;;;24.10;58.60;;;;;;4951237;28;20186;-76
2022/05/12 09:51:21;;;;;;;2.33;2.33;;;24.50;56.60;;;;;;5015638;28;20211;-76
2022/05/12 09:53:47;;;;;;;2.20;2.10;;;24.60;56.80;;;;;;5015287;28;20311;-76
2022/05/12 09:56:27;;;;;;;2.65;2.45;;;24.80;57.10;;;;;;5014677;28;20180;-76
2022/05/12 09:59:15;;;;;;;3.30;1.98;;;25.20;57.10;;;;;;5015536;28;20208;-77
2022/05/12 10:01:54;;;;;;;2.15;2.05;;;25.60;55.60;;;;;;5013035;28;20189;-76
2022/05/12 10:10:16;;;;;;;2.20;2.10;;;26.80;53.90;;;;;;5015164;28;20191;-75
2022/05/12 10:12:51;;;;;;;2.15;2.03;;;27.20;53.70;;;;;;5015589;28;20607;-76
2022/05/12 10:15:26;;;;;;;1.95;1.55;;;27.80;50.80;;;;;;5014107;28;20191;-75
2022/05/12 10:17:59;;;;;;;2.05;1.73;;;28.40;50.20;;;;;;5011604;28;20227;-76
2022/05/12 10:20:27;;;;;;;1.67;1.67;;;29.10;49.40;;;;;;5014305;28;20568;-75
2022/05/12 10:23:11;;;;;;;2.00;1.90;;;29.80;48.80;;;;;;5013782;28;21277;-75
2022/05/12 10:25:39;;;;;;;1.58;1.55;;;;;;;;;;5013618;28;20604;-75
2022/05/12 10:28:23;;;;;;;1.58;1.48;;;31.20;46.10;;;;;;5009103;28;20208;-76
2022/05/12 10:30:54;;;;;;;1.25;1.25;;;31.90;45.10;;;;;;5047514;28;20193;-76
2022/05/12 10:33:51;;;;;;;1.65;1.58;;;32.90;44.30;;;;;;5010195;28;20737;-76
2022/05/12 10:36:44;;;;;;;1.30;1.30;;;33.00;43.70;;;;;;5015629;28;20238;-75
2022/05/12 10:39:22;;;;;;;1.20;1.20;;;33.40;43.00;;;;;;5012877;28;20197;-76
2022/05/12 10:42:12;;;;;;;1.30;1.30;;;33.60;41.30;;;;;;5012530;28;20192;-75
2022/05/12 10:44:52;;;;;;;1.00;1.00;;;34.00;41.20;;;;;;5012930;28;20613;-75
2022/05/12 10:47:37;;;;;;;1.15;1.15;;;34.40;42.10;;;;;;5014114;28;20646;-75
2022/05/12 10:50:34;;;;;;;1.50;1.40;;;34.60;42.30;;;;;;5012126;28;20682;-75
2022/05/12 10:53:24;;;;;;;1.38;1.27;;;35.00;39.90;;;;;;5010906;28;20222;-75
2022/05/12 10:56:04;;;;;;;1.23;1.17;;;35.40;41.30;;;;;;5011434;28;20211;-76
2022/05/12 10:58:47;;;;;;;4.70;1.30;;;35.60;40.40;;;;;;5013072;28;20187;-77
2022/05/12 11:01:34;;;;;;;1.38;1.38;;;35.80;40.70;;;;;;5046471;28;20180;-78
2022/05/12 11:04:21;;;;;;;1.25;1.25;;;35.80;41.00;;;;;;5016493;28;20669;-76
2022/05/12 11:06:55;;;;;;;1.00;1.00;;;36.10;39.60;;;;;;5007210;28;20231;-77
2022/05/12 11:09:36;;;;;;;1.20;1.20;;;36.10;39.50;;;;;;5016737;28;20582;-77
2022/05/12 11:12:26;;;;;;;1.08;0.95;;;36.30;39.70;;;;;;5014677;28;20290;-77
2022/05/12 11:14:57;;;;;;;1.85;1.30;;;36.80;38.70;;;;;;5010903;28;20613;-77
2022/05/12 11:17:35;;;;;;;4.00;1.42;;;36.80;39.20;;;;;;5046625;28;20196;-74
2022/05/12 11:20:32;;;;;;;0.95;0.95;;;36.70;39.00;;;;;;5006506;28;20690;-73
2022/05/12 11:23:20;;;;;;;1.27;1.27;;;36.80;39.10;;;;;;5008767;28;20662;-72
2022/05/12 11:26:04;;;;;;;1.48;1.45;;;36.90;39.00;;;;;;5007078;28;20702;-73
2022/05/12 11:31:53;;;;;;;1.60;1.60;;;37.30;39.80;;;;;;4961870;28;20705;-73
2022/05/12 11:34:23;;;;;;;1.13;1.13;;;37.30;39.50;;;;;;4962234;28;20189;-74
2022/05/12 11:36:53;;;;;;;1.05;1.05;;;37.40;39.40;;;;;;4962458;28;20268;-73
2022/05/12 11:39:25;;;;;;;1.27;1.27;;;37.40;38.90;;;;;;4961139;28;20258;-73
2022/05/12 11:42:15;;;;;;;3.45;1.20;;;37.70;40.10;;;;;;4963327;28;20190;-72
2022/05/12 11:45:02;;;;;;;1.33;1.33;;;37.90;39.00;;;;;;4961841;28;20240;-73
2022/05/12 11:47:54;;;;;;;1.30;1.30;;;38.20;39.40;;;;;;4961348;28;20188;-73
2022/05/12 11:50:41;;;;;;;1.95;1.58;;;38.50;38.40;;;;;;4962588;28;20241;-72
2022/05/12 11:53:20;;;;;;;1.48;1.48;;;38.80;38.60;;;;;;4961584;28;20256;-72
2022/05/12 11:56:11;;;;;;;1.60;1.50;;;39.00;37.80;;;;;;4958019;28;20201;-75
2022/05/12 11:58:42;;;;;;;1.60;1.60;;;39.30;40.20;;;;;;4960024;28;20197;-75
2022/05/12 12:01:14;;;;;;;2.72;1.35;;;39.40;38.50;;;;;;4959842;28;21084;-75
2022/05/12 12:03:56;;;;;;;1.83;1.45;;;39.50;38.20;;;;;;4958535;28;20193;-76
2022/05/12 12:06:51;;;;;;;1.48;1.48;;;39.70;38.80;;;;;;4961640;28;20252;-76
2022/05/12 12:09:28;;;;;;;1.85;1.85;;;39.80;37.80;;;;;;4962229;28;20280;-76
2022/05/12 12:11:54;;;;;;;1.70;1.70;;;40.00;38.70;;;;;;4966480;28;20699;-76
2022/05/12 12:14:50;;;;;;;1.42;1.42;;;40.30;38.50;;;;;;4970291;28;20236;-76
2022/05/12 12:17:25;;;;;;;1.50;1.50;;;40.40;37.10;;;;;;4966457;28;20591;-77
2022/05/12 12:19:53;;;;;;;2.70;1.63;;;40.70;37.50;;;;;;4966725;28;20204;-76
2022/05/12 12:22:21;;;;;;;3.05;1.63;;;41.00;37.50;;;;;;4967112;28;20185;-76
2022/05/12 12:25:19;;;;;;;1.73;1.63;;;41.20;37.00;;;;;;4966936;28;20346;-76
2022/05/12 12:27:53;;;;;;;1.67;1.67;;;41.60;36.70;;;;;;4966706;28;20328;-76
2022/05/12 12:30:25;;;;;;;1.73;1.58;;;41.60;36.90;;;;;;4973894;28;20193;-75
2022/05/12 12:33:37;;;;;;;1.48;1.48;;;41.60;37.00;;;;;;4971424;28;20229;-75
2022/05/12 12:36:17;;;;;;;1.50;1.50;;;41.80;36.90;;;;;;4923651;29;20220;-76
2022/05/12 12:38:48;;;;;;;1.55;1.55;;;42.00;36.70;;;;;;4924544;29;20312;-75
2022/05/12 12:41:38;;;;;;;2.75;1.80;;;42.20;39.40;;;;;;4924159;29;20202;-75
2022/05/12 12:44:12;;;;;;;1.40;1.40;;;42.20;36.50;;;;;;4923738;29;20183;-76
2022/05/12 12:47:01;;;;;;;1.45;1.45;;;42.30;36.80;;;;;;4973888;28;20702;-76
2022/05/12 12:49:30;;;;;;;1.50;1.50;;;42.40;35.50;;;;;;4980638;28;20189;-76
2022/05/12 12:52:07;;;;;;;1.35;1.35;;;42.20;36.70;;;;;;4980622;28;20227;-76
2022/05/12 12:57:27;;;;;;;1.55;1.55;;;41.00;36.70;;;;;;4980448;28;20192;-74
2022/05/12 13:00:07;;;;;;;1.20;1.20;;;40.00;38.20;;;;;;4981999;28;20682;-76
2022/05/12 13:02:41;;;;;;;1.45;1.35;;;39.10;37.70;;;;;;4977478;28;20381;-75
2022/05/12 13:05:10;;;;;;;1.55;1.52;;;38.90;39.50;;;;;;4979288;28;20204;-76
2022/05/12 13:07:38;;;;;;;1.98;1.75;;;38.70;38.00;;;;;;4980717;28;20208;-75
2022/05/12 13:10:07;;;;;;;1.13;1.13;;;38.80;38.80;;;;;;4981293;28;20184;-75
2022/05/12 13:12:34;;;;;;;1.48;1.48;;;39.20;38.80;;;;;;4993462;28;20717;-75
2022/05/12 13:15:15;;;;;;;1.45;1.45;;;39.40;37.20;;;;;;5010959;28;20177;-74
2022/05/12 13:17:46;;;;;;;1.02;1.00;;;39.40;38.60;;;;;;5012774;28;20191;-76
2022/05/12 13:20:15;;;;;;;1.52;1.52;;;39.20;37.90;;;;;;5013449;28;20179;-76
2022/05/12 13:22:52;;;;;;;1.38;1.38;;;39.10;38.00;;;;;;5012999;28;20267;-75
2022/05/12 13:25:30;;;;;;;1.42;1.42;;;39.20;38.50;;;;;;5010561;28;20210;-76
2022/05/12 13:27:56;;;;;;;1.50;1.50;;;39.30;40.90;;;;;;5013228;28;20587;-75
2022/05/12 13:30:44;;;;;;;1.25;1.25;;;39.20;36.90;;;;;;5013958;28;20196;-76
2022/05/12 13:33:11;;;;;;;4.90;1.70;;;39.00;37.30;;;;;;5011007;28;20285;-76